Time;durP1;ratioP1;P1;durP2;ratioP2;P2;SDS_P1;SDS_P2;PMS_P1;PMS_P2;Temp;Humidity;BMP_temperature;BMP_pressure;BME280_temperature;BME280_humidity;BME280_pressure;Samples;Min_cycle;Max_cycle;Signal;HPM_P1;HPM_P2
2022/08/15 00:00:01;;;;;;;10.80;9.70;;;19.50;99.90;19.00;99940;;;;568881;252;24109;-82
2022/08/15 00:02:29;;;;;;;13.53;9.57;;;19.50;99.90;19.00;99935;;;;564650;254;24188;-82
2022/08/15 00:04:57;;;;;;;10.40;9.30;;;19.50;99.90;19.00;99938;;;;568738;251;23123;-81
2022/08/15 00:07:28;;;;;;;11.70;10.07;;;19.50;99.90;19.00;99938;;;;568860;252;24075;-82
2022/08/15 00:09:53;;;;;;;11.93;10.20;;;19.50;99.90;18.90;99943;;;;560144;252;24164;-82
2022/08/15 00:12:22;;;;;;;11.23;9.43;;;19.50;99.90;18.90;99943;;;;560253;252;24162;-82
2022/08/15 00:14:49;;;;;;;10.93;9.83;;;19.50;99.90;18.90;99939;;;;564533;252;24157;-81
2022/08/15 00:17:16;;;;;;;10.70;9.70;;;19.50;99.90;18.90;99939;;;;567615;249;24077;-82
2022/08/15 00:19:50;;;;;;;12.17;9.60;;;19.40;99.90;18.90;99946;;;;561124;252;24079;-81
2022/08/15 00:22:18;;;;;;;14.57;9.83;;;19.40;99.90;18.90;99939;;;;561187;252;24093;-80
2022/08/15 00:24:47;;;;;;;10.87;9.80;;;19.40;99.90;18.90;99937;;;;569651;252;24086;-80
2022/08/15 00:27:14;;;;;;;12.63;10.27;;;19.40;99.90;18.90;99935;;;;560859;252;24099;-81
2022/08/15 00:29:42;;;;;;;11.93;10.40;;;19.40;99.90;19.00;99941;;;;560888;252;24151;-82
2022/08/15 00:32:10;;;;;;;12.33;10.07;;;19.50;99.90;19.10;99939;;;;560907;252;24139;-82
2022/08/15 00:34:38;;;;;;;14.03;10.67;;;19.50;99.90;19.10;99936;;;;560329;252;24122;-81
2022/08/15 00:37:06;;;;;;;15.17;10.00;;;19.60;99.90;19.20;99937;;;;560500;252;24074;-83
2022/08/15 00:39:38;;;;;;;14.17;11.53;;;19.70;99.90;19.30;99935;;;;560811;252;24169;-82
2022/08/15 00:42:02;;;;;;;18.27;12.47;;;19.70;99.90;19.40;99942;;;;560746;252;24090;-83
2022/08/15 00:44:34;;;;;;;11.97;10.77;;;19.80;99.90;19.40;99943;;;;556678;254;24119;-83
2022/08/15 00:46:58;;;;;;;12.30;10.83;;;19.90;99.90;19.50;99939;;;;566016;249;23116;-82
2022/08/15 00:49:26;;;;;;;13.17;10.73;;;19.90;99.90;19.50;99937;;;;561474;254;23149;-81
2022/08/15 00:52:08;;;;;;;14.20;10.23;;;19.90;99.90;19.50;99941;;;;567292;249;24112;-81
2022/08/15 00:54:48;;;;;;;12.33;10.87;;;20.00;99.90;19.50;99946;;;;555728;254;24111;-81
2022/08/15 00:57:22;;;;;;;12.37;10.37;;;20.00;99.90;19.50;99949;;;;566359;249;24126;-83
2022/08/15 00:59:59;;;;;;;13.13;10.73;;;20.00;99.90;19.50;99938;;;;566647;249;24115;-82
2022/08/15 01:02:28;;;;;;;17.10;10.60;;;20.00;99.90;19.50;99941;;;;568391;252;24095;-82
2022/08/15 01:04:57;;;;;;;21.07;11.97;;;20.00;99.90;19.60;99944;;;;560576;252;23135;-80
2022/08/15 01:07:28;;;;;;;14.40;11.67;;;20.10;99.90;19.60;99945;;;;560542;252;24114;-80
2022/08/15 01:09:54;;;;;;;12.90;11.33;;;20.10;99.90;19.60;99951;;;;556121;254;24123;-81
2022/08/15 01:12:22;;;;;;;15.33;11.70;;;20.10;99.90;19.70;99945;;;;565755;249;23205;-81
2022/08/15 01:14:55;;;;;;;16.50;11.00;;;20.20;99.90;19.70;99948;;;;560790;254;23138;-82
2022/08/15 01:17:23;;;;;;;14.03;11.13;;;20.20;99.90;19.70;99948;;;;574247;249;24112;-82
2022/08/15 01:19:57;;;;;;;14.97;12.80;;;20.20;99.90;19.70;99942;;;;560597;254;24153;-83
2022/08/15 01:22:33;;;;;;;13.73;11.30;;;20.20;99.90;19.80;99944;;;;574352;249;23124;-82
2022/08/15 01:25:10;;;;;;;13.37;11.97;;;20.20;99.90;19.80;99940;;;;566314;249;24147;-84
2022/08/15 01:27:41;;;;;;;17.97;11.97;;;20.30;99.90;19.80;99938;;;;560709;252;24095;-82
2022/08/15 01:30:09;;;;;;;16.17;11.53;;;20.30;99.90;19.80;99935;;;;554006;254;23162;-83
2022/08/15 01:32:37;;;;;;;14.13;11.70;;;20.20;99.90;19.80;99929;;;;570793;249;24101;-87
2022/08/15 01:35:05;;;;;;;15.80;12.73;;;20.20;99.90;19.70;99935;;;;564731;249;23104;-84
2022/08/15 01:37:33;;;;;;;12.77;11.47;;;20.20;99.90;19.70;99928;;;;575347;249;23143;-82
2022/08/15 01:40:16;;;;;;;13.07;11.73;;;20.20;99.90;19.70;99933;;;;560707;252;24096;-82
2022/08/15 01:42:44;;;;;;;13.97;12.37;;;20.10;99.90;19.60;99935;;;;551876;254;23128;-82
2022/08/15 01:45:19;;;;;;;13.67;12.00;;;20.00;99.90;19.50;99928;;;;561188;254;23238;-82
2022/08/15 01:48:02;;;;;;;15.57;11.90;;;20.00;99.90;19.50;99929;;;;566753;249;24098;-82
2022/08/15 01:50:50;;;;;;;15.10;12.30;;;20.00;99.90;19.40;99925;;;;566300;249;24110;-82
2022/08/15 01:53:37;;;;;;;16.77;12.17;;;19.90;99.90;19.30;99929;;;;560267;252;24156;-83
2022/08/15 01:56:19;;;;;;;15.97;12.80;;;19.80;99.90;19.30;99936;;;;556406;254;24174;-83
2022/08/15 01:58:48;;;;;;;16.60;12.90;;;19.70;99.90;19.30;99936;;;;566380;249;24130;-83
2022/08/15 02:01:17;;;;;;;15.53;12.50;;;19.70;99.90;19.20;99936;;;;560326;252;23131;-82
2022/08/15 02:03:45;;;;;;;14.57;13.00;;;19.60;99.90;19.20;99934;;;;556498;254;24112;-82
2022/08/15 02:06:21;;;;;;;15.20;13.70;;;19.60;99.90;19.10;99932;;;;560869;248;24258;-82
2022/08/15 02:08:52;;;;;;;17.13;12.53;;;19.60;99.90;19.10;99929;;;;566330;249;24148;-82
2022/08/15 02:11:21;;;;;;;17.53;13.70;;;19.60;99.90;19.10;99917;;;;565810;249;24095;-82
2022/08/15 02:13:46;;;;;;;20.03;14.60;;;19.50;99.90;19.00;99925;;;;560681;252;23115;-82
2022/08/15 02:16:13;;;;;;;21.17;15.20;;;19.50;99.90;19.00;99915;;;;556396;254;24173;-82
2022/08/15 02:18:41;;;;;;;15.67;14.07;;;19.50;99.90;19.00;99912;;;;565722;249;24109;-82
2022/08/15 02:21:09;;;;;;;15.60;14.00;;;19.50;99.90;19.10;99910;;;;557547;252;24145;-81
2022/08/15 02:23:37;;;;;;;18.57;15.03;;;19.50;99.90;19.10;99902;;;;560126;252;24139;-82
2022/08/15 02:26:05;;;;;;;15.77;13.93;;;19.50;99.90;19.10;99910;;;;560061;252;24135;-82
2022/08/15 02:28:33;;;;;;;16.73;14.07;;;19.50;99.90;19.10;99902;;;;560178;252;24117;-81
2022/08/15 02:31:01;;;;;;;21.20;14.13;;;19.50;99.90;19.10;99902;;;;557424;248;24086;-83
2022/08/15 02:33:30;;;;;;;17.97;13.90;;;19.50;99.90;19.10;99902;;;;557574;252;24089;-82
2022/08/15 02:35:59;;;;;;;18.57;14.17;;;19.50;99.90;19.00;99896;;;;560129;252;24171;-81
2022/08/15 02:38:27;;;;;;;15.47;13.73;;;19.50;99.90;19.00;99896;;;;560647;251;24084;-82
2022/08/15 02:40:55;;;;;;;18.80;14.27;;;19.50;99.90;19.00;99899;;;;561681;252;24111;-81
2022/08/15 02:43:23;;;;;;;17.93;13.97;;;19.50;99.90;19.00;99901;;;;561375;252;24126;-81
2022/08/15 02:45:54;;;;;;;14.77;13.37;;;19.50;99.90;19.00;99903;;;;561276;252;24105;-83
2022/08/15 02:48:18;;;;;;;15.73;14.07;;;19.40;99.90;18.90;99906;;;;569190;251;24078;-88
2022/08/15 02:50:49;;;;;;;16.30;14.77;;;19.40;99.90;18.90;99899;;;;561046;252;24079;-85
2022/08/15 02:53:14;;;;;;;22.57;14.67;;;19.40;99.90;18.90;99898;;;;560987;252;24117;-86
2022/08/15 02:55:42;;;;;;;15.60;13.70;;;19.40;99.90;18.90;99887;;;;560956;252;24211;-86
2022/08/15 02:58:10;;;;;;;16.87;14.20;;;19.40;99.90;18.90;99882;;;;560739;252;24090;-85
2022/08/15 03:00:41;;;;;;;18.53;15.40;;;19.30;99.90;18.80;99881;;;;556192;254;24109;-84
2022/08/15 03:03:06;;;;;;;16.30;13.57;;;19.30;99.90;18.80;99880;;;;555891;254;24114;-82
2022/08/15 03:05:34;;;;;;;18.33;13.50;;;19.30;99.90;18.80;99879;;;;566450;249;24189;-81
2022/08/15 03:08:05;;;;;;;16.53;14.53;;;19.30;99.90;18.80;99877;;;;558028;252;24090;-82
2022/08/15 03:10:30;;;;;;;16.13;13.40;;;19.20;99.90;18.80;99876;;;;560462;252;24105;-82
2022/08/15 03:13:03;;;;;;;17.73;13.53;;;19.20;99.90;18.80;99879;;;;557983;252;24089;-82
2022/08/15 03:15:52;;;;;;;19.83;13.80;;;19.20;99.90;18.80;99878;;;;557918;252;24073;-81
2022/08/15 03:18:17;;;;;;;16.13;12.87;;;19.20;99.90;18.70;99876;;;;557689;252;24100;-81
2022/08/15 03:20:46;;;;;;;17.13;13.53;;;19.20;99.90;18.70;99879;;;;560082;252;24092;-81
2022/08/15 03:23:16;;;;;;;15.23;13.73;;;19.20;99.90;18.70;99880;;;;560020;252;24129;-82
2022/08/15 03:25:44;;;;;;;17.13;13.10;;;19.20;99.90;18.70;99878;;;;559876;252;24167;-82
2022/08/15 03:28:09;;;;;;;16.73;13.70;;;19.20;99.90;18.70;99877;;;;559849;252;24104;-84
2022/08/15 03:30:40;;;;;;;18.33;12.97;;;19.10;99.90;18.60;99879;;;;557507;252;24092;-81
2022/08/15 03:33:08;;;;;;;15.70;13.30;;;19.10;99.90;18.60;99884;;;;559895;252;24178;-81
2022/08/15 03:35:33;;;;;;;14.87;12.87;;;19.10;99.90;18.70;99877;;;;559861;252;24173;-82
2022/08/15 03:38:01;;;;;;;16.70;13.67;;;19.10;99.90;18.70;99872;;;;559557;252;24129;-82
2022/08/15 03:40:28;;;;;;;14.57;13.03;;;19.10;99.90;18.70;99867;;;;560509;252;24082;-82
2022/08/15 03:42:57;;;;;;;15.97;14.30;;;19.20;99.90;18.70;99868;;;;560492;252;24087;-81
2022/08/15 03:45:24;;;;;;;13.43;12.13;;;19.20;99.90;18.70;99868;;;;560418;252;24132;-83
2022/08/15 03:47:53;;;;;;;14.73;13.27;;;19.20;99.90;18.80;99863;;;;560474;252;24083;-82
2022/08/15 03:50:22;;;;;;;15.40;13.70;;;19.30;99.90;18.90;99860;;;;561090;251;24085;-81
2022/08/15 03:52:53;;;;;;;17.80;13.50;;;19.40;99.90;18.90;99854;;;;561620;252;24174;-81
2022/08/15 03:55:21;;;;;;;18.40;13.03;;;19.40;99.90;19.00;99859;;;;561330;252;24104;-82
2022/08/15 03:57:49;;;;;;;17.83;13.80;;;19.40;99.90;19.00;99862;;;;557085;254;24146;-84
2022/08/15 04:00:17;;;;;;;14.77;13.20;;;19.50;99.90;19.10;99857;;;;561054;252;24086;-82
2022/08/15 04:02:46;;;;;;;17.80;14.00;;;19.60;99.90;19.10;99853;;;;560872;252;24173;-82
2022/08/15 04:05:14;;;;;;;14.57;12.83;;;19.60;99.90;19.20;99853;;;;560977;252;24086;-81
2022/08/15 04:07:43;;;;;;;17.50;13.27;;;19.70;99.90;19.30;99854;;;;560862;252;24078;-82
2022/08/15 04:10:14;;;;;;;17.03;13.50;;;19.70;99.90;19.40;99861;;;;556046;254;24128;-82
2022/08/15 04:12:43;;;;;;;18.20;13.97;;;19.90;99.90;19.50;99865;;;;561087;248;23131;-82
2022/08/15 04:15:11;;;;;;;15.93;13.33;;;20.00;99.90;19.60;99871;;;;564765;254;24104;-82
2022/08/15 04:17:40;;;;;;;17.75;15.88;;;20.10;99.90;19.70;99867;;;;561532;249;46273;-83
2022/08/15 04:20:09;;;;;;;17.70;14.33;;;20.20;99.90;19.80;99876;;;;560296;252;24096;-84
2022/08/15 04:22:40;;;;;;;14.87;12.40;;;20.20;99.90;19.90;99876;;;;560750;252;24103;-83
2022/08/15 04:25:09;;;;;;;15.25;13.85;;;20.30;99.90;20.10;99871;;;;552844;252;57222;-83
2022/08/15 04:27:35;;;;;;;13.70;12.37;;;20.60;99.90;20.40;99869;;;;552709;256;24161;-82
2022/08/15 04:30:05;;;;;;;17.10;12.27;;;20.90;99.90;21.40;99874;;;;561938;249;23118;-83
2022/08/15 04:32:36;;;;;;;11.57;10.47;;;21.70;99.90;22.40;99877;;;;560343;252;24112;-88
2022/08/15 04:35:02;;;;;;;12.43;11.07;;;23.80;99.90;23.40;99867;;;;556121;254;24122;-82
2022/08/15 04:37:30;;;;;;;14.17;10.97;;;24.80;99.90;24.30;99872;;;;566680;249;24080;-83
2022/08/15 04:39:58;;;;;;;12.20;10.17;;;24.80;99.90;25.10;99856;;;;560425;252;24093;-82
2022/08/15 04:42:26;;;;;;;11.93;10.67;;;25.70;99.90;25.80;99858;;;;560595;252;23178;-82
2022/08/15 04:44:54;;;;;;;13.70;10.07;;;26.40;99.90;26.50;99845;;;;560779;252;23098;-80
2022/08/15 04:47:22;;;;;;;11.17;9.77;;;27.10;99.90;27.20;99851;;;;560949;252;24102;-82
2022/08/15 04:49:50;;;;;;;11.60;9.37;;;27.80;99.90;28.00;99841;;;;568448;252;23126;-82
2022/08/15 04:52:17;;;;;;;13.87;12.00;;;28.60;99.90;28.80;99843;;;;568620;250;24129;-83
2022/08/15 04:54:45;;;;;;;13.50;10.37;;;29.30;99.90;29.30;99841;;;;560016;252;23174;-82
2022/08/15 04:57:16;;;;;;;11.20;9.73;;;30.00;99.90;30.00;99847;;;;557308;252;23096;-82
2022/08/15 04:59:41;;;;;;;12.10;9.95;;;30.60;99.90;30.40;99836;;;;559897;252;24101;-81
2022/08/15 05:02:09;;;;;;;10.60;9.60;;;31.10;99.90;30.90;99840;;;;569344;251;23114;-83
2022/08/15 05:04:37;;;;;;;14.13;9.95;;;31.60;99.90;31.40;99843;;;;561197;252;23131;-84
2022/08/15 05:07:06;;;;;;;10.48;9.43;;;32.30;97.70;31.60;99837;;;;569364;252;23139;-83
2022/08/15 05:09:34;;;;;;;12.52;10.23;;;32.60;96.10;31.90;99838;;;;569456;252;24132;-83
2022/08/15 05:12:06;;;;;;;10.43;9.38;;;33.00;94.60;32.20;99843;;;;560703;252;23102;-84
2022/08/15 05:14:31;;;;;;;11.02;10.02;;;32.90;94.20;32.40;99839;;;;556160;254;23138;-82
2022/08/15 05:16:59;;;;;;;10.30;9.18;;;33.10;93.00;32.70;99840;;;;566480;249;23094;-84
2022/08/15 05:19:27;;;;;;;11.82;10.45;;;33.40;91.80;32.80;99847;;;;560086;252;23136;-84
2022/08/15 05:21:58;;;;;;;10.68;9.60;;;33.40;90.50;32.90;99852;;;;560528;252;23104;-82
2022/08/15 05:24:23;;;;;;;12.43;9.77;;;33.60;88.80;33.30;99858;;;;557330;252;24142;-82
2022/08/15 05:26:51;;;;;;;10.65;9.55;;;33.90;87.00;33.60;99855;;;;569133;252;23148;-84
2022/08/15 05:29:19;;;;;;;9.57;8.88;;;34.20;84.30;33.90;99858;;;;568885;252;24108;-83
2022/08/15 05:31:47;;;;;;;9.75;8.80;;;34.50;82.30;34.20;99858;;;;568796;252;24136;-82
2022/08/15 05:34:19;;;;;;;10.30;9.38;;;34.80;78.40;34.00;99861;;;;569194;252;24117;-82
2022/08/15 05:36:45;;;;;;;9.70;8.90;;;35.00;77.70;34.30;99857;;;;564816;254;23136;-82
2022/08/15 05:39:18;;;;;;;10.02;9.13;;;34.90;77.60;34.50;99853;;;;566359;249;23081;-83
2022/08/15 05:42:06;;;;;;;11.07;9.85;;;35.10;76.00;34.80;99859;;;;553803;253;23126;-82
2022/08/15 05:44:40;;;;;;;10.65;9.30;;;35.30;74.70;35.10;99859;;;;574174;249;23161;-83
2022/08/15 05:47:17;;;;;;;12.75;8.82;;;35.60;74.20;35.80;99867;;;;553844;254;23186;-83
2022/08/15 05:49:57;;;;;;;9.60;8.80;;;36.20;72.10;35.90;99861;;;;574538;248;23100;-84
2022/08/15 05:52:39;;;;;;;9.02;8.15;;;36.50;69.10;36.00;99872;;;;566192;249;23104;-86
2022/08/15 05:55:40;;;;;;;9.27;8.27;;;36.50;68.70;36.10;99879;;;;574505;248;23156;-82
2022/08/15 05:58:30;;;;;;;10.38;9.32;;;36.80;67.30;35.60;99874;;;;560144;252;23170;-82
2022/08/15 06:01:12;;;;;;;9.50;8.60;;;36.40;67.20;35.70;99883;;;;568655;252;23126;-82
2022/08/15 06:03:41;;;;;;;9.80;9.00;;;36.40;67.40;36.00;99880;;;;556539;254;23131;-82
2022/08/15 06:06:11;;;;;;;11.82;9.60;;;36.60;66.70;36.60;99887;;;;565874;249;24168;-90
2022/08/15 06:08:42;;;;;;;9.73;8.85;;;37.60;64.50;37.20;99887;;;;564301;253;23239;-83
2022/08/15 06:11:19;;;;;;;10.80;8.98;;;37.60;63.90;37.40;99884;;;;564782;249;23130;-82
2022/08/15 06:13:59;;;;;;;9.77;8.75;;;37.90;62.90;37.70;99897;;;;556612;253;23165;-83
2022/08/15 06:16:33;;;;;;;9.93;9.05;;;38.60;60.40;38.20;99896;;;;566902;249;23104;-82
2022/08/15 06:19:03;;;;;;;10.73;9.50;;;38.50;60.30;38.50;99911;;;;575499;248;23095;-87
2022/08/15 06:21:36;;;;;;;10.32;9.27;;;38.90;59.70;38.70;99900;;;;566688;249;23124;-82
2022/08/15 06:24:14;;;;;;;10.20;9.20;;;39.10;59.00;38.50;99903;;;;565378;249;23110;-82
2022/08/15 06:27:19;;;;;;;10.20;9.40;;;39.10;59.10;38.40;99898;;;;560701;251;23109;-81
2022/08/15 06:30:11;;;;;;;10.35;9.35;;;39.10;58.30;38.70;99906;;;;560707;252;23132;-82
2022/08/15 06:32:47;;;;;;;12.07;9.27;;;39.10;58.00;38.10;99910;;;;560718;252;23118;-83
2022/08/15 06:35:40;;;;;;;12.27;9.85;;;38.90;57.90;37.60;99899;;;;560470;252;23104;-83
2022/08/15 06:38:19;;;;;;;9.45;8.68;;;38.50;58.30;38.10;99909;;;;560328;252;23166;-83
2022/08/15 06:41:07;;;;;;;10.55;9.50;;;38.50;58.80;38.90;99906;;;;550411;252;23122;-82
2022/08/15 06:43:34;;;;;;;11.85;10.38;;;39.20;57.60;39.20;99905;;;;556938;254;23125;-84
2022/08/15 06:46:05;;;;;;;11.20;10.00;;;39.70;56.70;39.40;99897;;;;566152;249;24114;-82
2022/08/15 06:48:36;;;;;;;10.15;9.27;;;39.60;56.70;40.30;99899;;;;558154;252;23107;-86
2022/08/15 06:51:05;;;;;;;10.93;9.77;;;41.40;54.30;41.30;99900;;;;567415;252;23096;-83
2022/08/15 06:53:48;;;;;;;12.15;8.95;;;41.80;53.30;41.60;99887;;;;556666;252;23119;-84
2022/08/15 06:56:20;;;;;;;10.40;9.30;;;42.50;52.90;42.50;99891;;;;557424;252;23111;-83
2022/08/15 06:59:24;;;;;;;10.85;9.85;;;42.40;52.10;43.10;99886;;;;559959;252;23110;-84
2022/08/15 07:02:16;;;;;;;10.25;9.18;;;43.20;51.00;43.40;99884;;;;560496;252;23108;-83
2022/08/15 07:05:05;;;;;;;9.55;8.75;;;43.70;50.10;44.00;99891;;;;568465;252;25268;-84
2022/08/15 07:08:03;;;;;;;10.25;9.32;;;44.20;49.20;44.30;99894;;;;559871;252;24119;-87
2022/08/15 07:10:40;;;;;;;10.20;9.18;;;44.60;48.20;44.40;99903;;;;552176;256;23144;-84
2022/08/15 07:13:12;;;;;;;10.90;8.93;;;44.80;47.40;44.40;99902;;;;564611;254;23113;-86
2022/08/15 07:16:03;;;;;;;9.48;8.80;;;44.80;47.10;44.30;99894;;;;566018;248;23188;-89
2022/08/15 07:18:40;;;;;;;11.77;9.90;;;44.70;47.00;44.40;99903;;;;560625;252;23092;-88
2022/08/15 07:21:07;;;;;;;10.05;9.23;;;44.80;47.10;44.90;99895;;;;560169;252;24189;-85
2022/08/15 07:23:39;;;;;;;9.00;8.32;;;45.10;46.80;45.40;99900;;;;567528;252;23092;-86
2022/08/15 07:26:06;;;;;;;10.35;9.30;;;45.60;46.30;45.60;99898;;;;560920;252;23130;-83
2022/08/15 07:28:37;;;;;;;10.02;9.30;;;46.00;45.50;45.60;99899;;;;561473;253;23120;-83
2022/08/15 07:31:11;;;;;;;13.93;9.35;;;46.00;45.30;46.00;99903;;;;565682;245;23120;-83
2022/08/15 07:33:41;;;;;;;10.50;9.40;;;46.30;45.00;46.10;99895;;;;566664;249;24126;-84
2022/08/15 07:36:15;;;;;;;10.00;9.05;;;46.60;44.20;46.00;99900;;;;564432;254;23152;-86
2022/08/15 07:38:46;;;;;;;10.52;9.40;;;46.40;44.50;46.30;99894;;;;566759;249;23107;-86
2022/08/15 07:41:16;;;;;;;9.65;8.85;;;46.60;44.50;46.80;99894;;;;566467;249;23120;-83
2022/08/15 07:43:44;;;;;;;9.98;9.30;;;47.10;44.00;47.10;99898;;;;560636;252;23096;-85
2022/08/15 07:46:21;;;;;;;9.05;8.23;;;47.40;43.70;47.50;99896;;;;560390;252;23108;-87
2022/08/15 07:48:55;;;;;;;10.13;9.00;;;47.70;43.30;47.90;99897;;;;567721;252;23125;-87
2022/08/15 07:51:26;;;;;;;9.80;9.07;;;48.10;43.10;47.90;99902;;;;566154;249;23116;-86
2022/08/15 07:54:05;;;;;;;9.02;8.35;;;48.20;42.50;47.60;99908;;;;566000;249;24119;-84
2022/08/15 07:56:37;;;;;;;9.48;8.75;;;47.90;42.70;47.50;99919;;;;563516;249;23118;-86
2022/08/15 07:59:07;;;;;;;9.38;8.55;;;47.90;42.30;47.70;99910;;;;559654;252;23115;-87
2022/08/15 08:01:37;;;;;;;11.32;8.65;;;48.60;42.10;48.40;99915;;;;559631;252;23232;-82
2022/08/15 08:04:09;;;;;;;9.43;8.73;;;49.00;41.60;48.70;99900;;;;563900;254;23149;-86
2022/08/15 08:06:54;;;;;;;9.05;8.43;;;48.90;41.50;49.00;99903;;;;565737;249;23112;-87
2022/08/15 08:09:28;;;;;;;9.70;8.85;;;49.30;41.00;48.90;99901;;;;558792;252;24142;-85
2022/08/15 08:11:54;;;;;;;9.65;8.70;;;49.30;40.80;48.80;99901;;;;560097;252;23190;-82
2022/08/15 08:14:25;;;;;;;8.48;7.93;;;49.30;41.00;49.50;99902;;;;566458;252;23109;-83
2022/08/15 08:16:54;;;;;;;9.38;8.63;;;49.70;40.50;49.20;99896;;;;560537;252;23120;-83
2022/08/15 08:19:36;;;;;;;8.95;8.45;;;49.70;40.20;48.50;99904;;;;569031;252;23150;-84
2022/08/15 08:22:31;;;;;;;9.57;8.85;;;49.30;40.40;48.00;99900;;;;569128;252;23095;-82
2022/08/15 08:25:07;;;;;;;9.25;8.65;;;49.00;40.60;47.50;99895;;;;560832;252;23110;-82
2022/08/15 08:28:22;;;;;;;9.18;7.87;;;48.40;41.00;47.10;99902;;;;561089;252;23102;-81
2022/08/15 08:30:59;;;;;;;12.85;8.40;;;48.10;41.40;46.50;99895;;;;560682;248;24138;-81
2022/08/15 08:33:37;;;;;;;9.73;8.82;;;47.30;42.30;46.50;99900;;;;558272;252;23103;-81
2022/08/15 08:36:12;;;;;;;9.73;8.73;;;47.30;42.30;46.10;99899;;;;568428;250;23089;-81
2022/08/15 08:38:52;;;;;;;9.25;8.55;;;46.90;42.70;46.60;99900;;;;561428;252;23108;-80
2022/08/15 08:41:37;;;;;;;9.52;8.70;;;47.10;42.80;46.80;99908;;;;560975;252;23107;-81
2022/08/15 08:44:20;;;;;;;9.95;8.80;;;47.50;42.20;46.90;99901;;;;561501;252;23158;-81
2022/08/15 08:47:32;;;;;;;8.70;8.20;;;47.60;42.20;47.40;99896;;;;560740;252;23112;-83
2022/08/15 08:50:11;;;;;;;9.40;8.60;;;47.90;42.20;48.60;99902;;;;560973;252;23102;-82
2022/08/15 08:53:06;;;;;;;9.15;8.23;;;49.00;41.10;48.10;99895;;;;560744;252;23129;-81
2022/08/15 08:55:52;;;;;;;8.82;8.05;;;49.00;40.90;48.20;99901;;;;560597;252;23094;-81
2022/08/15 08:58:28;;;;;;;8.82;8.13;;;49.00;40.70;48.50;99899;;;;560897;252;23088;-82
2022/08/15 09:00:58;;;;;;;9.65;8.95;;;49.40;40.50;48.20;99900;;;;567322;252;23136;-82
2022/08/15 09:03:33;;;;;;;9.75;8.75;;;49.50;40.50;48.40;99908;;;;556355;254;23142;-81
2022/08/15 09:06:03;;;;;;;8.93;8.32;;;49.50;40.40;49.00;99905;;;;560431;252;23137;-79
2022/08/15 09:08:36;;;;;;;8.50;7.95;;;49.90;40.20;49.10;99902;;;;560391;252;24131;-80
2022/08/15 09:11:04;;;;;;;9.10;8.40;;;50.10;39.70;49.40;99901;;;;560397;252;23130;-80
2022/08/15 09:13:36;;;;;;;16.20;8.27;;;49.70;39.90;48.00;99910;;;;568612;252;23157;-81
2022/08/15 09:16:34;;;;;;;9.75;8.77;;;49.60;39.80;46.40;99906;;;;557523;252;23115;-81
2022/08/15 09:19:33;;;;;;;10.27;8.27;;;48.30;40.90;44.00;99901;;;;560282;252;23145;-81
2022/08/15 09:21:57;;;;;;;9.75;8.88;;;46.20;43.40;43.90;99891;;;;559681;252;23095;-81
2022/08/15 09:24:25;;;;;;;10.80;10.00;;;45.30;44.50;43.70;99901;;;;559853;252;23126;-81
2022/08/15 09:27:20;;;;;;;11.00;8.77;;;45.00;44.70;42.60;99885;;;;556065;254;23140;-83
2022/08/15 09:29:50;;;;;;;9.70;8.90;;;44.20;45.80;42.70;99891;;;;566278;249;23088;-82
2022/08/15 09:32:27;;;;;;;11.95;8.60;;;43.90;46.50;43.10;99897;;;;560488;253;23162;-81
2022/08/15 09:35:07;;;;;;;8.95;8.35;;;44.10;46.30;43.30;99893;;;;565884;249;23086;-81
2022/08/15 09:37:59;;;;;;;10.38;8.35;;;44.30;46.20;43.90;99887;;;;559135;252;23104;-81
2022/08/15 09:40:45;;;;;;;13.07;9.02;;;44.80;45.80;44.10;99886;;;;560136;252;23131;-82
2022/08/15 09:43:40;;;;;;;9.57;8.75;;;45.30;45.00;44.40;99882;;;;568878;252;23144;-81
2022/08/15 09:46:12;;;;;;;9.50;8.68;;;45.50;44.80;45.20;99882;;;;560481;252;23098;-82
2022/08/15 09:49:12;;;;;;;9.50;8.77;;;46.20;44.00;45.60;99870;;;;569709;250;23103;-82
2022/08/15 09:51:58;;;;;;;10.05;9.25;;;46.80;43.50;45.60;99883;;;;573944;250;23146;-82
2022/08/15 09:54:25;;;;;;;9.10;8.50;;;47.10;43.50;46.00;99879;;;;581146;243;23113;-81
2022/08/15 09:57:34;;;;;;;11.12;10.15;;;47.30;43.50;46.40;99876;;;;580544;243;23060;-81
2022/08/15 10:00:16;;;;;;;10.63;9.93;;;47.80;42.80;46.80;99866;;;;569903;243;23062;-81
2022/08/15 10:02:46;;;;;;;13.57;9.00;;;48.20;42.60;48.00;99873;;;;579170;243;23105;-80
2022/08/15 10:05:23;;;;;;;9.10;8.40;;;49.10;42.00;48.30;99864;;;;556153;254;23115;-81
2022/08/15 10:08:01;;;;;;;11.12;9.82;;;48.80;41.30;46.60;99867;;;;564935;249;23134;-81
2022/08/15 10:10:37;;;;;;;17.70;9.75;;;48.80;41.20;46.00;99865;;;;555933;254;23148;-83
2022/08/15 10:13:08;;;;;;;10.15;9.35;;;48.00;42.00;44.70;99865;;;;574940;248;23112;-81
2022/08/15 10:15:43;;;;;;;12.25;10.27;;;45.80;44.30;44.00;99866;;;;560173;252;23204;-81
2022/08/15 10:18:27;;;;;;;13.93;10.20;;;45.80;44.20;43.70;99867;;;;560547;252;23143;-81
2022/08/15 10:21:02;;;;;;;11.52;10.15;;;44.90;45.30;43.50;99854;;;;556768;252;23158;-82
2022/08/15 10:23:39;;;;;;;14.73;10.27;;;45.00;45.30;43.90;99851;;;;555201;254;23136;-81
2022/08/15 10:26:24;;;;;;;11.30;10.15;;;45.00;45.50;43.30;99864;;;;565488;249;23146;-81
2022/08/15 10:29:17;;;;;;;12.30;10.90;;;44.80;45.40;41.70;99861;;;;560453;252;23171;-80
2022/08/15 10:31:57;;;;;;;12.25;10.95;;;42.20;48.40;40.10;99863;;;;555383;252;46315;-81
2022/08/15 10:34:52;;;;;;;12.02;10.77;;;42.10;48.30;38.90;99856;;;;555153;252;46440;-82
2022/08/15 10:37:29;;;;;;;11.10;10.00;;;40.80;50.40;38.80;99847;;;;560547;252;23095;-81
2022/08/15 10:40:08;;;;;;;10.43;9.65;;;40.30;51.40;38.60;99850;;;;560030;252;23126;-84
2022/08/15 10:43:11;;;;;;;13.95;10.13;;;39.90;51.80;37.80;99850;;;;559822;252;23109;-81
2022/08/15 10:45:49;;;;;;;19.08;11.40;;;39.30;52.80;36.40;99861;;;;552878;256;23146;-84
2022/08/15 10:48:34;;;;;;;11.38;10.43;;;36.70;56.70;35.40;99854;;;;558800;253;23152;-83
2022/08/15 10:51:27;;;;;;;11.52;10.57;;;36.60;56.60;34.80;99845;;;;563437;249;24189;-82
2022/08/15 10:54:29;;;;;;;12.68;11.32;;;35.80;58.50;34.30;99844;;;;560897;249;35337;-81
2022/08/15 10:57:01;;;;;;;15.25;10.88;;;35.10;60.20;33.80;99848;;;;559950;252;23128;-85
2022/08/15 10:59:28;;;;;;;15.45;10.90;;;34.50;61.60;33.50;99849;;;;555309;253;23123;-86
2022/08/15 11:02:10;;;;;;;12.13;9.75;;;34.00;62.90;33.10;99842;;;;575257;249;24183;-82
2022/08/15 11:04:38;;;;;;;11.05;10.05;;;33.60;64.10;32.50;99844;;;;552395;254;23126;-85
2022/08/15 11:07:18;;;;;;;13.27;10.23;;;33.20;65.50;32.10;99850;;;;565860;249;23092;-84
2022/08/15 11:09:52;;;;;;;11.48;9.82;;;32.80;67.60;31.70;99838;;;;552937;254;23172;-84
2022/08/15 11:12:21;;;;;;;10.48;9.57;;;32.40;68.30;31.60;99835;;;;566084;249;23127;-84
2022/08/15 11:14:52;;;;;;;13.48;10.25;;;32.10;69.40;31.40;99834;;;;569255;251;23116;-81
2022/08/15 11:17:20;;;;;;;14.45;10.70;;;31.90;70.20;31.20;99827;;;;560643;252;23096;-86
2022/08/15 11:19:49;;;;;;;13.50;12.23;;;31.70;71.70;31.30;99820;;;;555343;252;35284;-82
2022/08/15 11:22:19;;;;;;;12.48;11.20;;;31.60;73.50;31.40;99819;;;;556334;254;23125;-83
2022/08/15 11:25:00;;;;;;;15.63;11.20;;;31.70;73.50;31.30;99831;;;;559288;254;23184;-85
2022/08/15 11:27:26;;;;;;;15.13;10.82;;;31.70;73.90;31.10;99830;;;;556448;254;23153;-87
2022/08/15 11:29:54;;;;;;;14.57;11.02;;;31.50;74.70;30.90;99835;;;;566430;249;23148;-83
2022/08/15 11:32:33;;;;;;;12.93;11.63;;;31.30;75.70;30.90;99824;;;;569192;246;35375;-82
2022/08/15 11:35:01;;;;;;;11.93;10.85;;;31.30;76.60;30.70;99820;;;;565495;249;23143;-81
2022/08/15 11:37:38;;;;;;;12.43;11.27;;;31.20;77.50;30.60;99822;;;;574188;249;24136;-80